Aérodrome :
LOGIN :

S'inscrire | Disclaimer

   EN    FR    IT 

 










Légende :    VFR   VFR Marginal   IFR   IFR Intensif   IFR Très Intensif
Visi : 
Plafond : 
>= 8 km
>= 3000ft
5 à 8 km
1000 à 3000 ft
1500m à 5 km
500 à 1000 ft
800 à 1500m
200 à 500 ft
< 800m
< 200 ft
Symboles :   Orages  Brouillard  Fortes neiges  Fortes précipitations  Vent > 20 kt
SIGMETs :   Divers  Orages  Givrage  Turbulence  Onde Orograph.  Cendres Volcan.







- Altitude de l'aérodrome : 247 ft
- Code IATA : BLL


EKBI - Billund

DERNIER METAR :
  • 180820Z AUTO 19007KT 140V210 9999 SCT070/// BKN100/// BKN200/// 22/15 Q1016

METARs EXPIRÉS :
  • 180750Z AUTO 19007KT 140V230 9999 SCT068/// BKN210/// 21/15 Q1016
  • 180720Z AUTO 18006KT 150V220 9999 SCT170/// 20/15 Q1016
  • 180650Z AUTO 17006KT 140V200 9999 BKN160/// 19/15 Q1016
  • 180620Z AUTO 17007KT 9999 FEW180/// SCT210/// 19/14 Q1016
  • 180550Z AUTO 16007KT 130V190 9999 SCT210/// 18/14 Q1016

TAF TAF EKBI
Valide du 18 à 06h jusqu'au 19 à 06h UTC


180504Z 1806/1906 19008KT 9999 FEW040
TEMPO 1809/1812 SCT040TCU
TEMPO 1812/1817 SCT040CB
Pas de NOTAMs connus pour ce terrain.



MET'MAP, la Météo Aéronautique d'un coup d'oeil ! - Copyright ORBIFLY Décembre 2007 - Disclaimer

ORBIFLY MET'MAP TEAM :

Programmation & Développement : Alexandra Zaïnal
Conception & Développement : Baudouin d'Aumeries
Co-Programmation & Développement : Marc-Olivier Méhu
Soutien technique & logistique : Manuel Goepfert

Contact : metmap@orbifly.com




SOURCES & CREDITS :

   NOAA